sensor_id;sensor_type;location;lat;lon;timestamp;pressure;altitude;pressure_sealevel;temperature;humidity
27712;BME280;2377;51.734;8.950;2022-12-07T00:01:53;97647.66;;;3.38;100.00
27712;BME280;2377;51.734;8.950;2022-12-07T00:04:21;97649.59;;;3.36;100.00
27712;BME280;2377;51.734;8.950;2022-12-07T00:06:52;97644.38;;;3.38;100.00
27712;BME280;2377;51.734;8.950;2022-12-07T00:09:20;97640.91;;;3.39;100.00
27712;BME280;2377;51.734;8.950;2022-12-07T00:11:50;97651.50;;;3.34;100.00
27712;BME280;2377;51.734;8.950;2022-12-07T00:14:20;97645.94;;;3.39;100.00
27712;BME280;2377;51.734;8.950;2022-12-07T00:16:50;97638.19;;;3.41;100.00
27712;BME280;2377;51.734;8.950;2022-12-07T00:19:18;97638.69;;;3.36;100.00
27712;BME280;2377;51.734;8.950;2022-12-07T00:21:45;97629.81;;;3.40;100.00
27712;BME280;2377;51.734;8.950;2022-12-07T00:24:12;97627.16;;;3.42;100.00
27712;BME280;2377;51.734;8.950;2022-12-07T00:26:41;97627.47;;;3.38;100.00
27712;BME280;2377;51.734;8.950;2022-12-07T00:29:16;97622.91;;;3.34;100.00
27712;BME280;2377;51.734;8.950;2022-12-07T00:31:45;97625.91;;;3.37;100.00
27712;BME280;2377;51.734;8.950;2022-12-07T00:34:16;97627.66;;;3.37;100.00
27712;BME280;2377;51.734;8.950;2022-12-07T00:36:43;97619.38;;;3.43;100.00
27712;BME280;2377;51.734;8.950;2022-12-07T00:39:10;97625.75;;;3.39;100.00
27712;BME280;2377;51.734;8.950;2022-12-07T00:41:38;97629.66;;;3.42;100.00
27712;BME280;2377;51.734;8.950;2022-12-07T00:44:05;97632.81;;;3.44;100.00
27712;BME280;2377;51.734;8.950;2022-12-07T00:46:32;97632.34;;;3.40;100.00
27712;BME280;2377;51.734;8.950;2022-12-07T00:49:01;97631.50;;;3.48;100.00
27712;BME280;2377;51.734;8.950;2022-12-07T00:51:29;97627.56;;;3.45;100.00
27712;BME280;2377;51.734;8.950;2022-12-07T00:53:56;97620.44;;;3.49;100.00
27712;BME280;2377;51.734;8.950;2022-12-07T00:56:26;97618.09;;;3.47;100.00
27712;BME280;2377;51.734;8.950;2022-12-07T00:58:56;97610.97;;;3.51;100.00
27712;BME280;2377;51.734;8.950;2022-12-07T01:01:25;97620.88;;;3.52;100.00
27712;BME280;2377;51.734;8.950;2022-12-07T01:03:53;97609.22;;;3.51;100.00
27712;BME280;2377;51.734;8.950;2022-12-07T01:06:23;97607.03;;;3.48;100.00
27712;BME280;2377;51.734;8.950;2022-12-07T01:08:51;97602.94;;;3.47;100.00
27712;BME280;2377;51.734;8.950;2022-12-07T01:11:22;97606.06;;;3.49;100.00
27712;BME280;2377;51.734;8.950;2022-12-07T01:13:51;97602.25;;;3.53;100.00
27712;BME280;2377;51.734;8.950;2022-12-07T01:16:20;97603.69;;;3.48;100.00
27712;BME280;2377;51.734;8.950;2022-12-07T01:18:51;97602.16;;;3.47;100.00
27712;BME280;2377;51.734;8.950;2022-12-07T01:21:23;97599.78;;;3.45;100.00
27712;BME280;2377;51.734;8.950;2022-12-07T01:23:52;97605.19;;;3.42;100.00
27712;BME280;2377;51.734;8.950;2022-12-07T01:26:22;97601.63;;;3.51;100.00
27712;BME280;2377;51.734;8.950;2022-12-07T01:28:51;97618.03;;;3.55;100.00
27712;BME280;2377;51.734;8.950;2022-12-07T01:31:23;97610.44;;;3.55;100.00
27712;BME280;2377;51.734;8.950;2022-12-07T01:33:54;97606.59;;;3.59;100.00
27712;BME280;2377;51.734;8.950;2022-12-07T01:36:25;97614.19;;;3.59;100.00
27712;BME280;2377;51.734;8.950;2022-12-07T01:38:56;97610.09;;;3.58;100.00
27712;BME280;2377;51.734;8.950;2022-12-07T01:41:27;97609.13;;;3.59;100.00
27712;BME280;2377;51.734;8.950;2022-12-07T01:44:17;97611.50;;;3.61;100.00
27712;BME280;2377;51.734;8.950;2022-12-07T01:46:47;97609.13;;;3.59;100.00
27712;BME280;2377;51.734;8.950;2022-12-07T01:49:23;97618.09;;;3.62;100.00
27712;BME280;2377;51.734;8.950;2022-12-07T01:52:00;97606.88;;;3.65;100.00
27712;BME280;2377;51.734;8.950;2022-12-07T01:54:29;97617.16;;;3.63;100.00
27712;BME280;2377;51.734;8.950;2022-12-07T01:56:57;97615.25;;;3.65;100.00
27712;BME280;2377;51.734;8.950;2022-12-07T01:59:26;97619.16;;;3.68;100.00
27712;BME280;2377;51.734;8.950;2022-12-07T02:01:55;97616.03;;;3.66;100.00
27712;BME280;2377;51.734;8.950;2022-12-07T02:04:25;97620.31;;;3.65;100.00
27712;BME280;2377;51.734;8.950;2022-12-07T02:06:55;97616.47;;;3.69;100.00
27712;BME280;2377;51.734;8.950;2022-12-07T02:09:24;97610.00;;;3.67;100.00
27712;BME280;2377;51.734;8.950;2022-12-07T02:11:53;97601.63;;;3.66;100.00
27712;BME280;2377;51.734;8.950;2022-12-07T02:14:21;97602.72;;;3.72;100.00
27712;BME280;2377;51.734;8.950;2022-12-07T02:17:05;97605.47;;;3.62;100.00
27712;BME280;2377;51.734;8.950;2022-12-07T02:23:55;97605.31;;;3.64;100.00
27712;BME280;2377;51.734;8.950;2022-12-07T02:29:55;97602.53;;;3.73;100.00
27712;BME280;2377;51.734;8.950;2022-12-07T02:32:35;97598.78;;;3.69;100.00
27712;BME280;2377;51.734;8.950;2022-12-07T02:35:11;97602.53;;;3.73;100.00
27712;BME280;2377;51.734;8.950;2022-12-07T02:37:47;97604.09;;;3.74;100.00
27712;BME280;2377;51.734;8.950;2022-12-07T02:40:22;97594.41;;;3.78;100.00
27712;BME280;2377;51.734;8.950;2022-12-07T02:43:00;97600.09;;;3.80;100.00
27712;BME280;2377;51.734;8.950;2022-12-07T02:45:32;97605.91;;;3.80;100.00
27712;BME280;2377;51.734;8.950;2022-12-07T02:48:04;97600.53;;;3.84;100.00
27712;BME280;2377;51.734;8.950;2022-12-07T02:50:32;97597.13;;;3.91;100.00
27712;BME280;2377;51.734;8.950;2022-12-07T02:52:59;97598.00;;;3.84;100.00
27712;BME280;2377;51.734;8.950;2022-12-07T02:55:33;97592.75;;;3.85;100.00
27712;BME280;2377;51.734;8.950;2022-12-07T02:58:20;97583.16;;;3.80;100.00
27712;BME280;2377;51.734;8.950;2022-12-07T03:01:06;97591.19;;;3.84;100.00
27712;BME280;2377;51.734;8.950;2022-12-07T03:03:38;97587.91;;;3.84;100.00
27712;BME280;2377;51.734;8.950;2022-12-07T03:06:14;97588.69;;;3.84;100.00
27712;BME280;2377;51.734;8.950;2022-12-07T03:08:53;97596.41;;;3.83;100.00
27712;BME280;2377;51.734;8.950;2022-12-07T03:11:30;97589.81;;;3.81;100.00
27712;BME280;2377;51.734;8.950;2022-12-07T03:14:13;97590.59;;;3.82;100.00
27712;BME280;2377;51.734;8.950;2022-12-07T03:16:53;97592.94;;;3.84;100.00
27712;BME280;2377;51.734;8.950;2022-12-07T03:19:26;97588.31;;;3.87;100.00
27712;BME280;2377;51.734;8.950;2022-12-07T03:21:58;97587.44;;;3.80;100.00
27712;BME280;2377;51.734;8.950;2022-12-07T03:24:30;97587.44;;;3.80;100.00
27712;BME280;2377;51.734;8.950;2022-12-07T03:27:04;97586.16;;;3.84;100.00
27712;BME280;2377;51.734;8.950;2022-12-07T03:29:38;97589.28;;;3.86;100.00
27712;BME280;2377;51.734;8.950;2022-12-07T03:32:26;97592.59;;;3.87;100.00
27712;BME280;2377;51.734;8.950;2022-12-07T03:35:03;97582.66;;;3.85;100.00
27712;BME280;2377;51.734;8.950;2022-12-07T03:37:38;97578.97;;;3.88;100.00
27712;BME280;2377;51.734;8.950;2022-12-07T03:40:14;97591.81;;;3.86;100.00
27712;BME280;2377;51.734;8.950;2022-12-07T03:42:43;97587.09;;;3.83;100.00
27712;BME280;2377;51.734;8.950;2022-12-07T03:45:11;97589.44;;;3.85;100.00
27712;BME280;2377;51.734;8.950;2022-12-07T03:47:48;97588.69;;;3.84;100.00
27712;BME280;2377;51.734;8.950;2022-12-07T03:50:29;97587.81;;;3.77;100.00
27712;BME280;2377;51.734;8.950;2022-12-07T03:53:04;97578.91;;;3.81;100.00
27712;BME280;2377;51.734;8.950;2022-12-07T03:55:39;97585.19;;;3.85;100.00
27712;BME280;2377;51.734;8.950;2022-12-07T03:58:12;97583.25;;;3.87;100.00
27712;BME280;2377;51.734;8.950;2022-12-07T04:00:46;97588.94;;;3.89;100.00
27712;BME280;2377;51.734;8.950;2022-12-07T04:03:15;97586.41;;;3.89;100.00
27712;BME280;2377;51.734;8.950;2022-12-07T04:05:43;97591.81;;;3.86;100.00
27712;BME280;2377;51.734;8.950;2022-12-07T04:08:11;97589.09;;;3.88;100.00
27712;BME280;2377;51.734;8.950;2022-12-07T04:10:38;97584.84;;;3.88;100.00
27712;BME280;2377;51.734;8.950;2022-12-07T04:13:05;97584.50;;;3.91;100.00
27712;BME280;2377;51.734;8.950;2022-12-07T04:15:33;97589.72;;;3.90;100.00
27712;BME280;2377;51.734;8.950;2022-12-07T04:18:00;97577.69;;;3.77;100.00
27712;BME280;2377;51.734;8.950;2022-12-07T04:20:28;97585.53;;;3.82;100.00
27712;BME280;2377;51.734;8.950;2022-12-07T04:22:56;97585.19;;;3.85;100.00
27712;BME280;2377;51.734;8.950;2022-12-07T04:25:23;97578.56;;;3.84;100.00
27712;BME280;2377;51.734;8.950;2022-12-07T04:27:50;97591.81;;;3.86;100.00
27712;BME280;2377;51.734;8.950;2022-12-07T04:30:18;97585.44;;;3.90;100.00
27712;BME280;2377;51.734;8.950;2022-12-07T04:32:45;97586.16;;;3.84;100.00
27712;BME280;2377;51.734;8.950;2022-12-07T04:35:12;97580.47;;;3.82;100.00
27712;BME280;2377;51.734;8.950;2022-12-07T04:37:41;97586.16;;;3.84;100.00
27712;BME280;2377;51.734;8.950;2022-12-07T04:40:09;97585.94;;;3.86;100.00
27712;BME280;2377;51.734;8.950;2022-12-07T04:42:37;97581.25;;;3.83;100.00
27712;BME280;2377;51.734;8.950;2022-12-07T04:45:05;97577.25;;;3.73;100.00
27712;BME280;2377;51.734;8.950;2022-12-07T04:47:33;97579.97;;;3.72;100.00
27712;BME280;2377;51.734;8.950;2022-12-07T04:50:00;97579.88;;;3.80;100.00
27712;BME280;2377;51.734;8.950;2022-12-07T04:52:28;97581.78;;;3.78;100.00
27712;BME280;2377;51.734;8.950;2022-12-07T04:54:56;97589.34;;;3.78;100.00
27712;BME280;2377;51.734;8.950;2022-12-07T04:57:23;97583.88;;;3.74;100.00
27712;BME280;2377;51.734;8.950;2022-12-07T04:59:51;97582.75;;;3.77;100.00
27712;BME280;2377;51.734;8.950;2022-12-07T05:02:18;97578.63;;;3.76;100.00
27712;BME280;2377;51.734;8.950;2022-12-07T05:04:45;97574.56;;;3.75;100.00
27712;BME280;2377;51.734;8.950;2022-12-07T05:07:12;97578.31;;;3.79;100.00
27712;BME280;2377;51.734;8.950;2022-12-07T05:09:40;97572.72;;;3.84;100.00
27712;BME280;2377;51.734;8.950;2022-12-07T05:12:08;97573.25;;;3.79;100.00
27712;BME280;2377;51.734;8.950;2022-12-07T05:14:35;97579.16;;;3.71;100.00
27712;BME280;2377;51.734;8.950;2022-12-07T05:17:03;97577.00;;;3.68;100.00
27712;BME280;2377;51.734;8.950;2022-12-07T05:19:30;97575.25;;;3.69;100.00
27712;BME280;2377;51.734;8.950;2022-12-07T05:21:58;97573.69;;;3.68;100.00
27712;BME280;2377;51.734;8.950;2022-12-07T05:24:25;97567.03;;;3.67;100.00
27712;BME280;2377;51.734;8.950;2022-12-07T05:26:52;97576.03;;;3.69;100.00
27712;BME280;2377;51.734;8.950;2022-12-07T05:29:21;97577.16;;;3.67;100.00
27712;BME280;2377;51.734;8.950;2022-12-07T05:31:48;97581.94;;;3.62;100.00
27712;BME280;2377;51.734;8.950;2022-12-07T05:34:15;97578.63;;;3.61;100.00
27712;BME280;2377;51.734;8.950;2022-12-07T05:36:42;97576.13;;;3.61;100.00
27712;BME280;2377;51.734;8.950;2022-12-07T05:39:10;97579.78;;;3.58;100.00
27712;BME280;2377;51.734;8.950;2022-12-07T05:41:37;97571.50;;;3.65;100.00
27712;BME280;2377;51.734;8.950;2022-12-07T05:44:24;97575.94;;;3.63;100.00
27712;BME280;2377;51.734;8.950;2022-12-07T05:46:51;97579.00;;;3.58;100.00
27712;BME280;2377;51.734;8.950;2022-12-07T05:49:18;97569.41;;;3.68;100.00
27712;BME280;2377;51.734;8.950;2022-12-07T05:51:45;97571.84;;;3.62;100.00
27712;BME280;2377;51.734;8.950;2022-12-07T05:54:13;97568.38;;;3.63;100.00
27712;BME280;2377;51.734;8.950;2022-12-07T05:56:40;97563.13;;;3.64;100.00
27712;BME280;2377;51.734;8.950;2022-12-07T05:59:08;97562.69;;;3.60;100.00
27712;BME280;2377;51.734;8.950;2022-12-07T06:01:56;97561.22;;;3.66;100.00
27712;BME280;2377;51.734;8.950;2022-12-07T06:04:26;97562.97;;;3.66;100.00
27712;BME280;2377;51.734;8.950;2022-12-07T06:06:53;97562.25;;;3.57;100.00
27712;BME280;2377;51.734;8.950;2022-12-07T06:09:23;97557.75;;;3.67;100.00
27712;BME280;2377;51.734;8.950;2022-12-07T06:11:52;97557.81;;;3.59;100.00
27712;BME280;2377;51.734;8.950;2022-12-07T06:14:37;97560.94;;;3.61;100.00
27712;BME280;2377;51.734;8.950;2022-12-07T06:17:06;97559.72;;;3.57;100.00
27712;BME280;2377;51.734;8.950;2022-12-07T06:19:33;97567.75;;;3.60;100.00
27712;BME280;2377;51.734;8.950;2022-12-07T06:22:02;97565.84;;;3.63;100.00
27712;BME280;2377;51.734;8.950;2022-12-07T06:24:31;97563.94;;;3.65;100.00
27712;BME280;2377;51.734;8.950;2022-12-07T06:26:58;97568.19;;;3.64;100.00
27712;BME280;2377;51.734;8.950;2022-12-07T06:29:26;97573.22;;;3.64;100.00
27712;BME280;2377;51.734;8.950;2022-12-07T06:31:53;97568.88;;;3.58;100.00
27712;BME280;2377;51.734;8.950;2022-12-07T06:34:24;97572.19;;;3.58;100.00
27712;BME280;2377;51.734;8.950;2022-12-07T06:36:53;97562.78;;;3.52;100.00
27712;BME280;2377;51.734;8.950;2022-12-07T06:39:23;97565.59;;;3.57;100.00
27712;BME280;2377;51.734;8.950;2022-12-07T06:41:51;97562.25;;;3.57;100.00
27712;BME280;2377;51.734;8.950;2022-12-07T06:44:20;97563.38;;;3.54;100.00
27712;BME280;2377;51.734;8.950;2022-12-07T06:46:49;97567.66;;;3.54;100.00
27712;BME280;2377;51.734;8.950;2022-12-07T06:49:17;97564.97;;;3.55;100.00
27712;BME280;2377;51.734;8.950;2022-12-07T06:51:45;97565.47;;;3.51;100.00
27712;BME280;2377;51.734;8.950;2022-12-07T06:54:15;97573.22;;;3.49;100.00
27712;BME280;2377;51.734;8.950;2022-12-07T06:56:43;97568.53;;;3.46;100.00
27712;BME280;2377;51.734;8.950;2022-12-07T06:59:10;97567.56;;;3.47;100.00
27712;BME280;2377;51.734;8.950;2022-12-07T07:01:37;97576.63;;;3.42;100.00
27712;BME280;2377;51.734;8.950;2022-12-07T07:04:05;97572.34;;;3.42;100.00
27712;BME280;2377;51.734;8.950;2022-12-07T07:06:32;97579.94;;;3.42;100.00
27712;BME280;2377;51.734;8.950;2022-12-07T07:09:01;97580.34;;;3.46;100.00
27712;BME280;2377;51.734;8.950;2022-12-07T07:11:28;97579.25;;;3.48;100.00
27712;BME280;2377;51.734;8.950;2022-12-07T07:13:55;97583.16;;;3.51;100.00
27712;BME280;2377;51.734;8.950;2022-12-07T07:16:28;97583.75;;;3.38;100.00
27712;BME280;2377;51.734;8.950;2022-12-07T07:18:56;97586.63;;;3.50;100.00
27712;BME280;2377;51.734;8.950;2022-12-07T07:21:23;97587.75;;;3.47;100.00
27712;BME280;2377;51.734;8.950;2022-12-07T07:23:51;97591.16;;;3.39;100.00
27712;BME280;2377;51.734;8.950;2022-12-07T07:26:20;97595.75;;;3.36;100.00
27712;BME280;2377;51.734;8.950;2022-12-07T07:28:47;97585.75;;;3.43;100.00
27712;BME280;2377;51.734;8.950;2022-12-07T07:31:14;97593.84;;;3.38;100.00
27712;BME280;2377;51.734;8.950;2022-12-07T07:33:41;97588.63;;;3.39;100.00
27712;BME280;2377;51.734;8.950;2022-12-07T07:36:09;97586.53;;;3.43;100.00
27712;BME280;2377;51.734;8.950;2022-12-07T07:38:36;97588.63;;;3.39;100.00
27712;BME280;2377;51.734;8.950;2022-12-07T07:41:04;97587.06;;;3.38;100.00
27712;BME280;2377;51.734;8.950;2022-12-07T07:43:33;97592.63;;;3.34;100.00
27712;BME280;2377;51.734;8.950;2022-12-07T07:46:00;97603.94;;;3.38;100.00
27712;BME280;2377;51.734;8.950;2022-12-07T07:48:27;97595.59;;;3.37;100.00
27712;BME280;2377;51.734;8.950;2022-12-07T07:50:55;97597.16;;;3.38;100.00
27712;BME280;2377;51.734;8.950;2022-12-07T07:53:22;97592.91;;;3.39;100.00
27712;BME280;2377;51.734;8.950;2022-12-07T07:55:53;97597.16;;;3.38;100.00
27712;BME280;2377;51.734;8.950;2022-12-07T07:58:21;97601.78;;;3.35;100.00
27712;BME280;2377;51.734;8.950;2022-12-07T08:00:50;97602.41;;;3.37;100.00
27712;BME280;2377;51.734;8.950;2022-12-07T08:03:17;97608.38;;;3.36;100.00
27712;BME280;2377;51.734;8.950;2022-12-07T08:05:44;97604.66;;;3.32;100.00
27712;BME280;2377;51.734;8.950;2022-12-07T08:08:12;97598.91;;;3.38;100.00
27712;BME280;2377;51.734;8.950;2022-12-07T08:10:39;97603.34;;;3.36;100.00
27712;BME280;2377;51.734;8.950;2022-12-07T08:13:06;97602.28;;;3.30;100.00
27712;BME280;2377;51.734;8.950;2022-12-07T08:15:42;97603.69;;;3.33;100.00
27712;BME280;2377;51.734;8.950;2022-12-07T08:18:12;97598.28;;;3.36;100.00
27712;BME280;2377;51.734;8.950;2022-12-07T08:20:41;97603.53;;;3.34;100.00
27712;BME280;2377;51.734;8.950;2022-12-07T08:23:10;97598.78;;;3.31;100.00
27712;BME280;2377;51.734;8.950;2022-12-07T08:25:38;97605.84;;;3.36;100.00
27712;BME280;2377;51.734;8.950;2022-12-07T08:28:06;97609.69;;;3.32;100.00
27712;BME280;2377;51.734;8.950;2022-12-07T08:30:34;97605.22;;;3.19;100.00
27712;BME280;2377;51.734;8.950;2022-12-07T08:33:01;97609.75;;;3.24;100.00
27712;BME280;2377;51.734;8.950;2022-12-07T08:35:32;97617.59;;;3.29;100.00
27712;BME280;2377;51.734;8.950;2022-12-07T08:38:00;97617.59;;;3.29;100.00
27712;BME280;2377;51.734;8.950;2022-12-07T08:40:28;97613.63;;;3.34;100.00
27712;BME280;2377;51.734;8.950;2022-12-07T08:42:55;97618.69;;;3.34;100.00
27712;BME280;2377;51.734;8.950;2022-12-07T08:45:23;97618.69;;;3.34;100.00
27712;BME280;2377;51.734;8.950;2022-12-07T08:48:00;97612.81;;;3.34;100.00
27712;BME280;2377;51.734;8.950;2022-12-07T08:50:32;97612.81;;;3.34;100.00
27712;BME280;2377;51.734;8.950;2022-12-07T08:53:01;97606.59;;;3.22;100.00
27712;BME280;2377;51.734;8.950;2022-12-07T08:55:29;97612.38;;;3.30;100.00
27712;BME280;2377;51.734;8.950;2022-12-07T08:57:58;97623.53;;;3.36;100.00
27712;BME280;2377;51.734;8.950;2022-12-07T09:00:26;97621.00;;;3.36;100.00
27712;BME280;2377;51.734;8.950;2022-12-07T09:02:54;97614.69;;;3.40;100.00
27712;BME280;2377;51.734;8.950;2022-12-07T09:05:21;97617.72;;;3.35;100.00
27712;BME280;2377;51.734;8.950;2022-12-07T09:07:55;97611.16;;;3.26;100.00
27712;BME280;2377;51.734;8.950;2022-12-07T09:10:24;97614.31;;;3.28;100.00
27712;BME280;2377;51.734;8.950;2022-12-07T09:12:51;97617.59;;;3.29;100.00
27712;BME280;2377;51.734;8.950;2022-12-07T09:15:19;97614.53;;;3.18;100.00
27712;BME280;2377;51.734;8.950;2022-12-07T09:17:46;97615.16;;;3.21;100.00
27712;BME280;2377;51.734;8.950;2022-12-07T09:20:14;97616.09;;;3.20;100.00
27712;BME280;2377;51.734;8.950;2022-12-07T09:22:41;97613.25;;;3.23;100.00
27712;BME280;2377;51.734;8.950;2022-12-07T09:25:10;97616.72;;;3.22;100.00
27712;BME280;2377;51.734;8.950;2022-12-07T09:27:37;97612.75;;;3.27;100.00
27712;BME280;2377;51.734;8.950;2022-12-07T09:30:08;97614.56;;;3.33;100.00
27712;BME280;2377;51.734;8.950;2022-12-07T09:32:35;97614.56;;;3.33;100.00
27712;BME280;2377;51.734;8.950;2022-12-07T09:35:03;97614.75;;;3.32;100.00
27712;BME280;2377;51.734;8.950;2022-12-07T09:37:30;97614.75;;;3.32;100.00
27712;BME280;2377;51.734;8.950;2022-12-07T09:40:01;97621.09;;;3.28;100.00
27712;BME280;2377;51.734;8.950;2022-12-07T09:42:35;97620.13;;;3.29;100.00
27712;BME280;2377;51.734;8.950;2022-12-07T09:45:10;97622.72;;;3.21;100.00
27712;BME280;2377;51.734;8.950;2022-12-07T09:47:38;97623.50;;;3.21;100.00
27712;BME280;2377;51.734;8.950;2022-12-07T09:50:12;97629.34;;;3.22;100.00
27712;BME280;2377;51.734;8.950;2022-12-07T09:52:43;97628.66;;;3.28;100.00
27712;BME280;2377;51.734;8.950;2022-12-07T09:55:15;97626.41;;;3.33;100.00
27712;BME280;2377;51.734;8.950;2022-12-07T09:57:44;97621.72;;;3.30;100.00
27712;BME280;2377;51.734;8.950;2022-12-07T10:00:16;97613.16;;;3.31;100.00
27712;BME280;2377;51.734;8.950;2022-12-07T10:02:47;97617.88;;;3.34;100.00
27712;BME280;2377;51.734;8.950;2022-12-07T10:05:22;97611.09;;;3.34;100.00
27712;BME280;2377;51.734;8.950;2022-12-07T10:07:51;97613.13;;;3.39;100.00
27712;BME280;2377;51.734;8.950;2022-12-07T10:10:25;97615.28;;;3.42;100.00
27712;BME280;2377;51.734;8.950;2022-12-07T10:12:58;97604.84;;;3.45;100.00
27712;BME280;2377;51.734;8.950;2022-12-07T10:15:46;97609.88;;;3.45;100.00
27712;BME280;2377;51.734;8.950;2022-12-07T10:18:25;97609.56;;;3.48;100.00
27712;BME280;2377;51.734;8.950;2022-12-07T10:21:05;97602.16;;;3.47;100.00
27712;BME280;2377;51.734;8.950;2022-12-07T10:23:35;97598.56;;;3.41;100.00
27712;BME280;2377;51.734;8.950;2022-12-07T10:26:27;97603.44;;;3.43;100.00
27712;BME280;2377;51.734;8.950;2022-12-07T10:29:00;97599.53;;;3.40;100.00
27712;BME280;2377;51.734;8.950;2022-12-07T10:31:29;97601.53;;;3.45;100.00
27712;BME280;2377;51.734;8.950;2022-12-07T10:33:59;97594.84;;;3.52;100.00
27712;BME280;2377;51.734;8.950;2022-12-07T10:36:35;97584.09;;;3.35;100.00
27712;BME280;2377;51.734;8.950;2022-12-07T10:39:11;97595.50;;;3.46;100.00
27712;BME280;2377;51.734;8.950;2022-12-07T10:41:54;97591.59;;;3.43;100.00
27712;BME280;2377;51.734;8.950;2022-12-07T10:44:27;97595.44;;;3.39;100.00
27712;BME280;2377;51.734;8.950;2022-12-07T10:47:17;97599.25;;;3.35;100.00
27712;BME280;2377;51.734;8.950;2022-12-07T10:50:11;97585.34;;;3.39;100.00
27712;BME280;2377;51.734;8.950;2022-12-07T10:52:58;97591.31;;;3.38;100.00
27712;BME280;2377;51.734;8.950;2022-12-07T10:55:45;97590.03;;;3.42;100.00
27712;BME280;2377;51.734;8.950;2022-12-07T10:58:37;97592.41;;;3.44;100.00
27712;BME280;2377;51.734;8.950;2022-12-07T11:01:23;97587.00;;;3.47;100.00
27712;BME280;2377;51.734;8.950;2022-12-07T11:04:21;97580.66;;;3.51;100.00
27712;BME280;2377;51.734;8.950;2022-12-07T11:07:00;97575.06;;;3.55;100.00
27712;BME280;2377;51.734;8.950;2022-12-07T11:09:54;97576.28;;;3.59;100.00
27712;BME280;2377;51.734;8.950;2022-12-07T11:12:39;97574.03;;;3.65;100.00
27712;BME280;2377;51.734;8.950;2022-12-07T11:15:17;97565.47;;;3.66;100.00
27712;BME280;2377;51.734;8.950;2022-12-07T11:18:00;97565.47;;;3.66;100.00
27712;BME280;2377;51.734;8.950;2022-12-07T11:20:43;97566.72;;;3.70;100.00
27712;BME280;2377;51.734;8.950;2022-12-07T11:23:23;97568.28;;;3.71;100.00
27712;BME280;2377;51.734;8.950;2022-12-07T11:26:04;97563.22;;;3.71;100.00
27712;BME280;2377;51.734;8.950;2022-12-07T11:28:57;97568.53;;;3.76;100.00
27712;BME280;2377;51.734;8.950;2022-12-07T11:31:36;97555.56;;;3.79;100.00
27712;BME280;2377;51.734;8.950;2022-12-07T11:34:18;97556.25;;;3.73;100.00
27712;BME280;2377;51.734;8.950;2022-12-07T11:36:51;97549.53;;;3.80;100.00
27712;BME280;2377;51.734;8.950;2022-12-07T11:39:26;97552.41;;;3.77;100.00
27712;BME280;2377;51.734;8.950;2022-12-07T11:42:05;97549.38;;;3.81;100.00
27712;BME280;2377;51.734;8.950;2022-12-07T11:44:50;97540.41;;;3.79;100.00
27712;BME280;2377;51.734;8.950;2022-12-07T11:47:28;97538.47;;;3.81;100.00
27712;BME280;2377;51.734;8.950;2022-12-07T11:50:14;97539.50;;;3.87;100.00
27712;BME280;2377;51.734;8.950;2022-12-07T11:52:53;97532.09;;;3.85;100.00
27712;BME280;2377;51.734;8.950;2022-12-07T11:55:41;97533.16;;;3.91;100.00
27712;BME280;2377;51.734;8.950;2022-12-07T11:58:40;97534.88;;;3.90;100.00
27712;BME280;2377;51.734;8.950;2022-12-07T12:04:19;97528.44;;;3.88;100.00
27712;BME280;2377;51.734;8.950;2022-12-07T12:06:52;97524.19;;;3.88;100.00
27712;BME280;2377;51.734;8.950;2022-12-07T12:09:26;97533.94;;;3.91;100.00
27712;BME280;2377;51.734;8.950;2022-12-07T12:12:31;97529.22;;;3.88;100.00
27712;BME280;2377;51.734;8.950;2022-12-07T12:15:21;97531.16;;;3.86;100.00
27712;BME280;2377;51.734;8.950;2022-12-07T12:18:26;97529.81;;;3.90;100.00
27712;BME280;2377;51.734;8.950;2022-12-07T12:21:04;97534.94;;;3.97;100.00
27712;BME280;2377;51.734;8.950;2022-12-07T12:23:41;97534.78;;;3.98;100.00
27712;BME280;2377;51.734;8.950;2022-12-07T12:26:18;97524.59;;;3.92;100.00
27712;BME280;2377;51.734;8.950;2022-12-07T12:28:54;97522.06;;;3.92;100.00
27712;BME280;2377;51.734;8.950;2022-12-07T12:31:40;97522.31;;;3.97;100.00
27712;BME280;2377;51.734;8.950;2022-12-07T12:34:40;97511.78;;;3.93;100.00
27712;BME280;2377;51.734;8.950;2022-12-07T12:37:41;97507.91;;;3.97;100.00
27712;BME280;2377;51.734;8.950;2022-12-07T12:40:53;97504.38;;;3.92;100.00
27712;BME280;2377;51.734;8.950;2022-12-07T12:43:51;97506.97;;;3.98;100.00
27712;BME280;2377;51.734;8.950;2022-12-07T12:46:52;97509.91;;;4.02;100.00
27712;BME280;2377;51.734;8.950;2022-12-07T12:50:16;97507.59;;;4.00;100.00
27712;BME280;2377;51.734;8.950;2022-12-07T12:52:58;97498.63;;;3.98;100.00
27712;BME280;2377;51.734;8.950;2022-12-07T12:56:11;97501.69;;;3.93;100.00
27712;BME280;2377;51.734;8.950;2022-12-07T12:58:43;97499.75;;;3.95;100.00
27712;BME280;2377;51.734;8.950;2022-12-07T13:01:45;97491.97;;;3.97;100.00
27712;BME280;2377;51.734;8.950;2022-12-07T13:04:51;97494.16;;;4.00;100.00
27712;BME280;2377;51.734;8.950;2022-12-07T13:07:56;97491.44;;;4.01;99.78
27712;BME280;2377;51.734;8.950;2022-12-07T13:10:39;97487.00;;;4.03;100.00
27712;BME280;2377;51.734;8.950;2022-12-07T13:13:34;97487.88;;;3.96;99.45
27712;BME280;2377;51.734;8.950;2022-12-07T13:16:49;97493.66;;;3.90;99.45
27712;BME280;2377;51.734;8.950;2022-12-07T13:19:56;97492.25;;;3.87;100.00
27712;BME280;2377;51.734;8.950;2022-12-07T13:22:58;97488.41;;;3.91;99.35
27712;BME280;2377;51.734;8.950;2022-12-07T13:25:48;97484.16;;;3.92;99.14
27712;BME280;2377;51.734;8.950;2022-12-07T13:28:19;97483.97;;;3.93;99.81
27712;BME280;2377;51.734;8.950;2022-12-07T13:34:01;97479.47;;;4.10;99.88
27712;BME280;2377;51.734;8.950;2022-12-07T13:36:33;97478.16;;;4.14;99.21
27712;BME280;2377;51.734;8.950;2022-12-07T13:39:18;97488.56;;;4.05;99.15
27712;BME280;2377;51.734;8.950;2022-12-07T13:41:51;97479.31;;;4.12;99.39
27712;BME280;2377;51.734;8.950;2022-12-07T13:44:19;97481.22;;;4.10;97.81
27712;BME280;2377;51.734;8.950;2022-12-07T13:47:04;97473.03;;;4.08;97.80
27712;BME280;2377;51.734;8.950;2022-12-07T13:49:38;97478.09;;;4.08;98.18
27712;BME280;2377;51.734;8.950;2022-12-07T13:52:16;97474.44;;;4.10;97.64
27712;BME280;2377;51.734;8.950;2022-12-07T13:54:47;97466.06;;;4.10;98.00
27712;BME280;2377;51.734;8.950;2022-12-07T13:57:15;97463.69;;;4.08;98.16
27712;BME280;2377;51.734;8.950;2022-12-07T13:59:42;97454.97;;;4.11;98.45
27712;BME280;2377;51.734;8.950;2022-12-07T14:02:25;97465.69;;;4.13;98.59